Sector Santa Ana, Puerto Rico
Current Conditions -  °F | °C
As of 6:56 AM on Friday 28 Nov 2014 (Local Time) from TJSJ Reporting Station
Few Clouds Few Clouds  
Wind Chill: 73°   Ceiling: Unl
Heat Index: 73°   Visibility: 10mi
Dew Point: 70°   Wind: 0mph
Humidity: 90%   Direction: NA
Pressure: 29.96"   Gusts: NA
Location:  17.9903°N, 66.2815°W
Report Text: TJSJ 281056Z 00000KT 10SM FEW025 23/21 A2996 RMK AO2 SLP145 T02280211
Loading
Personal Weather Stations






























Interactive Weather Map New forecast layout! Learn more

10-Day Weather Forecast

Advertisements
Track Severe Weather on mobile